createdAt,value
2019-03-29T00:00:16.021Z,8.80
2019-03-29T00:02:44.603Z,8.80
2019-03-29T00:05:13.091Z,8.00
2019-03-29T00:07:41.972Z,8.93
2019-03-29T00:10:10.887Z,9.00
2019-03-29T00:12:39.438Z,9.10
2019-03-29T00:15:08.635Z,9.40
2019-03-29T00:17:37.095Z,9.75
2019-03-29T00:20:07.608Z,9.57
2019-03-29T00:22:36.140Z,9.80
2019-03-29T00:25:05.045Z,9.37
2019-03-29T00:27:33.609Z,10.80
2019-03-29T00:30:02.223Z,10.03
2019-03-29T00:32:31.257Z,9.78
2019-03-29T00:35:01.090Z,10.27
2019-03-29T00:37:29.647Z,9.83
2019-03-29T00:39:58.106Z,10.55
2019-03-29T00:42:26.591Z,10.20
2019-03-29T00:44:55.063Z,10.20
2019-03-29T00:47:23.519Z,10.40
2019-03-29T00:49:52.089Z,11.43
2019-03-29T00:52:20.623Z,10.53
2019-03-29T00:54:49.112Z,11.08
2019-03-29T00:57:17.572Z,10.70
2019-03-29T00:59:46.139Z,10.63
2019-03-29T01:02:14.608Z,10.93
2019-03-29T01:04:43.092Z,11.03
2019-03-29T01:07:11.879Z,11.10
2019-03-29T01:09:40.395Z,12.35
2019-03-29T01:12:08.863Z,11.97
2019-03-29T01:14:37.398Z,11.23
2019-03-29T01:17:05.901Z,11.10
2019-03-29T01:19:34.433Z,11.57
2019-03-29T01:22:02.919Z,11.30
2019-03-29T01:24:31.399Z,11.48
2019-03-29T01:26:59.888Z,11.17
2019-03-29T01:29:28.348Z,11.40
2019-03-29T01:31:56.820Z,10.75
2019-03-29T01:34:25.369Z,10.10
2019-03-29T01:36:53.900Z,10.23
2019-03-29T01:39:22.694Z,9.83
2019-03-29T01:41:51.158Z,9.93
2019-03-29T01:44:19.730Z,10.03
2019-03-29T01:46:48.287Z,9.35
2019-03-29T01:49:17.047Z,9.98
2019-03-29T01:51:45.611Z,9.33
2019-03-29T01:54:14.143Z,10.43
2019-03-29T01:56:42.708Z,10.67
2019-03-29T01:59:11.504Z,10.70
2019-03-29T02:01:39.984Z,10.90
2019-03-29T02:04:08.478Z,10.17
2019-03-29T02:06:37.004Z,12.13
2019-03-29T02:09:06.220Z,11.87
2019-03-29T02:11:34.857Z,12.23
2019-03-29T02:14:03.353Z,12.40
2019-03-29T02:16:31.882Z,12.43
2019-03-29T02:19:00.443Z,12.87
2019-03-29T02:21:30.585Z,12.43
2019-03-29T02:23:59.050Z,12.37
2019-03-29T02:26:27.619Z,13.40
2019-03-29T02:28:56.415Z,13.22
2019-03-29T02:31:26.080Z,14.47
2019-03-29T02:33:54.949Z,13.90
2019-03-29T02:36:23.492Z,13.40
2019-03-29T02:38:55.690Z,14.47
2019-03-29T02:41:22.236Z,15.08
2019-03-29T02:43:50.724Z,14.23
2019-03-29T02:46:19.261Z,15.88
2019-03-29T02:48:47.760Z,15.78
2019-03-29T02:51:16.238Z,16.77
2019-03-29T02:53:44.696Z,15.60
2019-03-29T02:56:13.192Z,16.10
2019-03-29T02:58:41.744Z,16.40
2019-03-29T03:01:10.299Z,15.68
2019-03-29T03:03:38.800Z,16.30
2019-03-29T03:06:07.359Z,18.37
2019-03-29T03:08:35.897Z,17.33
2019-03-29T03:11:04.522Z,17.50
2019-03-29T03:13:32.989Z,18.27
2019-03-29T03:16:01.616Z,18.45
2019-03-29T03:18:30.174Z,18.23
2019-03-29T03:20:58.986Z,18.30
2019-03-29T03:23:28.412Z,18.03
2019-03-29T03:25:57.031Z,17.67
2019-03-29T03:28:25.594Z,18.62
2019-03-29T03:30:54.066Z,17.40
2019-03-29T03:33:22.759Z,17.50
2019-03-29T03:35:51.372Z,18.90
2019-03-29T03:38:20.108Z,18.30
2019-03-29T03:40:48.659Z,19.40
2019-03-29T03:43:17.196Z,18.00
2019-03-29T03:45:45.751Z,19.63
2019-03-29T03:48:14.227Z,20.35
2019-03-29T03:50:43.228Z,20.00
2019-03-29T03:53:11.957Z,19.92
2019-03-29T03:55:41.312Z,20.40
2019-03-29T03:58:10.715Z,21.20
2019-03-29T04:00:53.996Z,19.85
2019-03-29T04:03:22.803Z,21.13
2019-03-29T04:05:51.335Z,21.60
2019-03-29T04:08:20.274Z,21.05
2019-03-29T04:10:48.877Z,20.60
2019-03-29T04:13:17.416Z,21.90
2019-03-29T04:15:46.100Z,21.90
2019-03-29T04:18:16.016Z,20.57
2019-03-29T04:20:44.826Z,19.90
2019-03-29T04:23:13.533Z,21.80
2019-03-29T04:25:42.164Z,22.43
2019-03-29T04:28:10.630Z,21.52
2019-03-29T04:30:39.232Z,21.60
2019-03-29T04:33:11.114Z,22.15
2019-03-29T04:35:37.999Z,21.50
2019-03-29T04:38:06.698Z,22.30
2019-03-29T04:40:35.283Z,21.52
2019-03-29T04:43:03.862Z,22.33
2019-03-29T04:45:32.470Z,22.27
2019-03-29T04:48:00.935Z,21.20
2019-03-29T04:50:29.863Z,21.47
2019-03-29T04:52:58.404Z,21.62
2019-03-29T04:55:27.232Z,22.37
2019-03-29T04:57:55.688Z,22.33
2019-03-29T05:00:24.250Z,23.80
2019-03-29T05:02:53.041Z,22.58
2019-03-29T05:05:21.514Z,24.00
2019-03-29T05:07:50.075Z,24.27
2019-03-29T05:10:21.576Z,24.10
2019-03-29T05:12:48.987Z,24.67
2019-03-29T05:15:17.586Z,24.27
2019-03-29T05:17:46.062Z,23.87
2019-03-29T05:20:14.594Z,25.57
2019-03-29T05:22:43.200Z,25.40
2019-03-29T05:25:11.831Z,25.43
2019-03-29T05:27:40.361Z,26.70
2019-03-29T05:30:09.019Z,26.55
2019-03-29T05:32:37.469Z,26.57
2019-03-29T05:35:06.793Z,26.20
2019-03-29T05:37:35.251Z,25.40
2019-03-29T05:40:04.850Z,25.60
2019-03-29T05:42:33.402Z,26.00
2019-03-29T05:45:01.937Z,24.98
2019-03-29T05:47:30.540Z,25.43
2019-03-29T05:49:59.205Z,24.70
2019-03-29T05:52:28.041Z,24.63
2019-03-29T05:54:56.497Z,25.30
2019-03-29T05:57:24.976Z,24.20
2019-03-29T05:59:53.540Z,24.98
2019-03-29T06:02:22.212Z,24.00
2019-03-29T06:04:50.692Z,22.93
2019-03-29T06:07:19.151Z,24.12
2019-03-29T06:09:47.639Z,23.90
2019-03-29T06:12:16.171Z,23.52
2019-03-29T06:14:44.744Z,22.75
2019-03-29T06:17:13.211Z,22.25
2019-03-29T06:19:41.654Z,23.50
2019-03-29T06:22:10.219Z,21.75
2019-03-29T06:24:38.751Z,23.05
2019-03-29T06:27:07.247Z,21.35
2019-03-29T06:29:35.719Z,21.53
2019-03-29T06:32:04.250Z,22.32
2019-03-29T06:34:32.737Z,20.30
2019-03-29T06:37:01.908Z,21.90
2019-03-29T06:39:30.844Z,19.90
2019-03-29T06:41:59.378Z,20.20
2019-03-29T06:44:27.863Z,20.92
2019-03-29T06:46:56.334Z,20.40
2019-03-29T06:49:24.823Z,19.47
2019-03-29T06:51:53.284Z,20.95
2019-03-29T06:54:21.772Z,19.55
2019-03-29T06:56:50.231Z,19.57
2019-03-29T06:59:18.708Z,19.60
2019-03-29T07:01:47.255Z,19.40
2019-03-29T07:04:15.731Z,19.20
2019-03-29T07:06:44.551Z,18.50
2019-03-29T07:09:13.093Z,18.10
2019-03-29T07:11:41.715Z,17.70
2019-03-29T07:14:10.203Z,18.40
2019-03-29T07:16:38.671Z,18.20
2019-03-29T07:19:07.244Z,19.20
2019-03-29T07:21:35.768Z,17.97
2019-03-29T07:24:04.328Z,17.70
2019-03-29T07:26:32.868Z,18.32
2019-03-29T07:29:01.343Z,17.20
2019-03-29T07:31:29.904Z,17.70
2019-03-29T07:33:59.398Z,18.00
2019-03-29T07:36:28.032Z,17.43
2019-03-29T07:38:56.613Z,17.70
2019-03-29T07:41:31.971Z,17.10
2019-03-29T07:43:56.877Z,17.57
2019-03-29T07:46:25.431Z,17.30
2019-03-29T07:48:53.973Z,16.60
2019-03-29T07:51:22.455Z,17.07
2019-03-29T07:53:51.023Z,16.75
2019-03-29T07:56:19.555Z,16.90
2019-03-29T07:58:50.948Z,16.65
2019-03-29T08:01:19.588Z,15.90
2019-03-29T08:03:51.192Z,16.97
2019-03-29T08:06:18.414Z,17.17
2019-03-29T08:08:46.938Z,16.37
2019-03-29T08:11:25.462Z,16.40
2019-03-29T08:13:45.623Z,16.37
2019-03-29T08:16:14.112Z,17.05
2019-03-29T08:18:42.612Z,16.07
2019-03-29T08:21:11.099Z,16.10
2019-03-29T08:23:39.566Z,16.27
2019-03-29T08:26:08.182Z,16.57
2019-03-29T08:28:36.745Z,16.47
2019-03-29T08:31:05.512Z,15.90
2019-03-29T08:33:34.094Z,16.20
2019-03-29T08:36:02.564Z,15.67
2019-03-29T08:38:31.130Z,15.48
2019-03-29T08:40:59.698Z,15.90
2019-03-29T08:43:28.187Z,15.40
2019-03-29T08:45:57.720Z,15.95
2019-03-29T08:48:26.662Z,15.87
2019-03-29T08:50:55.295Z,14.70
2019-03-29T08:53:27.312Z,16.50
2019-03-29T08:55:54.372Z,16.05
2019-03-29T08:58:22.835Z,14.60
2019-03-29T09:00:51.411Z,15.30
2019-03-29T09:03:19.884Z,14.90
2019-03-29T09:05:48.352Z,15.40
2019-03-29T09:08:17.054Z,16.25
2019-03-29T09:10:45.597Z,15.28
2019-03-29T09:13:14.347Z,16.07
2019-03-29T09:15:42.812Z,15.50
2019-03-29T09:18:11.457Z,14.57
2019-03-29T09:20:40.432Z,15.70
2019-03-29T09:23:10.540Z,13.97
2019-03-29T09:25:40.950Z,14.90
2019-03-29T09:28:09.484Z,15.40
2019-03-29T09:30:37.982Z,14.93
2019-03-29T09:33:06.585Z,15.17
2019-03-29T09:35:35.212Z,14.73
2019-03-29T09:38:03.840Z,14.87
2019-03-29T09:40:32.454Z,14.63
2019-03-29T09:43:08.595Z,13.60
2019-03-29T09:45:31.098Z,14.07
2019-03-29T09:47:59.894Z,14.03
2019-03-29T09:50:28.631Z,14.07
2019-03-29T09:53:00.902Z,13.38
2019-03-29T09:55:27.661Z,12.73
2019-03-29T09:57:56.231Z,11.43
2019-03-29T10:00:24.839Z,11.30
2019-03-29T10:02:53.553Z,11.40
2019-03-29T10:05:22.261Z,11.08
2019-03-29T10:07:50.830Z,11.75
2019-03-29T10:10:19.296Z,12.10
2019-03-29T10:12:47.815Z,11.00
2019-03-29T10:15:16.732Z,10.15
2019-03-29T10:17:45.663Z,9.88
2019-03-29T10:20:14.529Z,9.60
2019-03-29T10:22:43.168Z,9.47
2019-03-29T10:25:19.098Z,8.90
2019-03-29T10:27:42.174Z,8.90
2019-03-29T10:30:11.673Z,9.07
2019-03-29T10:32:40.144Z,9.13
2019-03-29T10:35:08.807Z,8.80
2019-03-29T10:37:37.363Z,9.30
2019-03-29T10:40:06.858Z,8.93
2019-03-29T10:42:35.591Z,9.50
2019-03-29T10:45:05.340Z,8.05
2019-03-29T10:47:43.071Z,7.70
2019-03-29T10:50:06.010Z,7.30
2019-03-29T10:52:34.546Z,6.60
2019-03-29T10:55:03.164Z,7.90
2019-03-29T10:57:31.711Z,7.97
2019-03-29T11:00:01.115Z,8.03
2019-03-29T11:02:29.713Z,7.67
2019-03-29T11:04:58.192Z,7.17
2019-03-29T11:07:26.651Z,7.83
2019-03-29T11:09:55.145Z,7.50
2019-03-29T11:12:23.652Z,6.80
2019-03-29T11:14:52.111Z,6.62
2019-03-29T11:17:20.602Z,6.50
2019-03-29T11:19:49.147Z,6.80
2019-03-29T11:22:17.732Z,6.28
2019-03-29T11:24:46.247Z,6.97
2019-03-29T11:27:14.810Z,7.05
2019-03-29T11:29:43.352Z,6.50
2019-03-29T11:32:12.182Z,6.73
2019-03-29T11:34:40.719Z,7.40
2019-03-29T11:37:09.365Z,7.00
2019-03-29T11:39:38.140Z,7.00
2019-03-29T11:42:06.691Z,8.00
2019-03-29T11:44:35.244Z,6.83
2019-03-29T11:47:04.915Z,7.20
2019-03-29T11:49:33.370Z,6.57
2019-03-29T11:52:01.902Z,6.78
2019-03-29T11:54:30.619Z,5.80
2019-03-29T11:56:59.544Z,7.10
2019-03-29T11:59:28.030Z,6.50
2019-03-29T12:01:56.502Z,7.10
2019-03-29T12:04:25.062Z,7.20
2019-03-29T12:06:53.591Z,7.15
2019-03-29T12:09:22.082Z,7.40
2019-03-29T12:11:50.612Z,6.70
2019-03-29T12:14:19.124Z,6.65
2019-03-29T12:16:47.900Z,7.37
2019-03-29T12:19:16.563Z,7.00
2019-03-29T12:21:45.167Z,7.70
2019-03-29T12:24:13.668Z,7.40
2019-03-29T12:26:42.191Z,7.10
2019-03-29T12:29:10.879Z,7.80
2019-03-29T12:31:39.383Z,7.50
2019-03-29T12:34:07.984Z,7.00
2019-03-29T12:36:36.544Z,8.40
2019-03-29T12:39:07.353Z,8.20
2019-03-29T12:41:36.062Z,7.83
2019-03-29T12:44:04.875Z,7.80
2019-03-29T12:46:33.443Z,7.53
2019-03-29T12:49:01.912Z,8.20
2019-03-29T12:51:30.404Z,7.90
2019-03-29T12:53:58.949Z,8.33
2019-03-29T12:56:27.422Z,7.20
2019-03-29T12:58:55.979Z,8.58
2019-03-29T13:01:38.446Z,7.90
2019-03-29T13:03:54.851Z,8.33
2019-03-29T13:06:23.332Z,7.78
2019-03-29T13:08:51.864Z,8.00
2019-03-29T13:11:20.339Z,7.70
2019-03-29T13:13:48.905Z,7.50
2019-03-29T13:16:17.689Z,7.53
2019-03-29T13:18:46.415Z,7.78
2019-03-29T13:21:14.939Z,7.80
2019-03-29T13:23:43.542Z,8.23
2019-03-29T13:26:12.157Z,8.57
2019-03-29T13:28:41.018Z,8.20
2019-03-29T13:31:09.564Z,8.37
2019-03-29T13:33:40.589Z,7.40
2019-03-29T13:36:09.269Z,8.83
2019-03-29T13:38:38.168Z,8.73
2019-03-29T13:41:07.250Z,8.63
2019-03-29T13:43:35.892Z,9.23
2019-03-29T13:46:04.780Z,8.23
2019-03-29T13:48:33.328Z,8.57
2019-03-29T13:51:01.831Z,8.93
2019-03-29T13:53:30.406Z,9.60
2019-03-29T13:55:58.971Z,8.60
2019-03-29T13:58:27.436Z,7.03
2019-03-29T14:00:56.217Z,8.43
2019-03-29T14:03:25.036Z,8.43
2019-03-29T14:05:53.570Z,9.13
2019-03-29T14:08:22.195Z,9.23
2019-03-29T14:10:50.736Z,10.90
2019-03-29T14:13:19.834Z,10.50
2019-03-29T14:15:48.529Z,9.70
2019-03-29T14:18:17.157Z,9.80
2019-03-29T14:20:45.618Z,10.50
2019-03-29T14:23:14.193Z,10.50
2019-03-29T14:25:42.785Z,10.73
2019-03-29T14:28:11.275Z,10.50
2019-03-29T14:30:39.817Z,10.80
2019-03-29T14:33:08.428Z,10.63
2019-03-29T14:35:36.907Z,10.47
2019-03-29T14:38:05.517Z,10.20
2019-03-29T14:40:34.072Z,10.50
2019-03-29T14:43:02.539Z,10.60
2019-03-29T14:45:31.312Z,10.30
2019-03-29T14:47:59.837Z,9.80
2019-03-29T14:50:28.412Z,10.03
2019-03-29T14:52:57.030Z,10.60
2019-03-29T14:55:25.602Z,10.40
2019-03-29T14:57:54.135Z,10.50
2019-03-29T15:00:37.348Z,10.23
2019-03-29T15:03:06.015Z,10.83
2019-03-29T15:05:34.523Z,10.50
2019-03-29T15:08:03.166Z,11.10
2019-03-29T15:10:32.136Z,11.25
2019-03-29T15:13:00.630Z,10.50
2019-03-29T15:15:29.235Z,11.30
2019-03-29T15:17:57.723Z,11.00
2019-03-29T15:20:26.190Z,10.60
2019-03-29T15:22:55.053Z,11.13
2019-03-29T15:25:23.609Z,10.67
2019-03-29T15:27:52.336Z,11.20
2019-03-29T15:30:21.267Z,10.70
2019-03-29T15:32:49.788Z,11.45
2019-03-29T15:35:20.814Z,10.80
2019-03-29T15:37:48.805Z,10.93
2019-03-29T15:40:17.725Z,10.50
2019-03-29T15:42:46.199Z,10.43
2019-03-29T15:45:20.815Z,10.10
2019-03-29T15:47:45.018Z,10.70
2019-03-29T15:50:13.754Z,10.00
2019-03-29T15:52:42.452Z,10.68
2019-03-29T15:55:11.548Z,10.13
2019-03-29T15:57:40.168Z,10.43
2019-03-29T16:00:10.657Z,11.40
2019-03-29T16:02:39.136Z,10.50
2019-03-29T16:05:07.769Z,10.60
2019-03-29T16:07:36.234Z,10.53
2019-03-29T16:10:05.462Z,10.10
2019-03-29T16:12:33.999Z,10.03
2019-03-29T16:15:02.628Z,10.55
2019-03-29T16:17:31.191Z,9.73
2019-03-29T16:19:59.724Z,10.30
2019-03-29T16:22:28.216Z,9.88
2019-03-29T16:24:56.727Z,10.67
2019-03-29T16:27:25.607Z,11.00
2019-03-29T16:29:54.080Z,10.32
2019-03-29T16:32:23.380Z,10.48
2019-03-29T16:34:51.854Z,10.00
2019-03-29T16:37:20.416Z,10.23
2019-03-29T16:39:48.910Z,10.47
2019-03-29T16:42:17.450Z,10.20
2019-03-29T16:44:45.944Z,10.00
2019-03-29T16:47:14.405Z,10.28
2019-03-29T16:49:42.928Z,10.30
2019-03-29T16:52:11.508Z,10.35
2019-03-29T16:54:40.005Z,10.17
2019-03-29T16:57:08.731Z,9.70
2019-03-29T16:59:37.218Z,9.78
2019-03-29T17:02:05.675Z,9.70
2019-03-29T17:04:34.335Z,10.90
2019-03-29T17:07:02.862Z,10.23
2019-03-29T17:09:31.391Z,9.97
2019-03-29T17:12:00.385Z,11.00
2019-03-29T17:14:28.851Z,10.03
2019-03-29T17:16:57.596Z,10.40
2019-03-29T17:19:26.213Z,10.10
2019-03-29T17:21:54.763Z,10.48
2019-03-29T17:24:23.592Z,9.33
2019-03-29T17:26:52.411Z,9.98
2019-03-29T17:29:20.890Z,9.95
2019-03-29T17:31:49.447Z,9.80
2019-03-29T17:34:18.361Z,10.13
2019-03-29T17:36:47.003Z,10.30
2019-03-29T17:39:15.470Z,10.90
2019-03-29T17:41:44.003Z,9.60
2019-03-29T17:44:12.636Z,10.47
2019-03-29T17:46:41.098Z,10.47
2019-03-29T17:49:09.704Z,10.50
2019-03-29T17:51:38.174Z,11.40
2019-03-29T17:54:06.731Z,10.03
2019-03-29T17:56:35.207Z,10.38
2019-03-29T17:59:03.706Z,11.00
2019-03-29T18:01:32.252Z,10.45
2019-03-29T18:04:00.743Z,10.53
2019-03-29T18:06:29.367Z,10.90
2019-03-29T18:08:58.257Z,11.93
2019-03-29T18:11:26.808Z,11.53
2019-03-29T18:13:55.346Z,12.27
2019-03-29T18:16:30.669Z,11.70
2019-03-29T18:18:54.178Z,11.53
2019-03-29T18:21:22.735Z,11.00
2019-03-29T18:23:51.194Z,10.85
2019-03-29T18:26:19.728Z,10.70
2019-03-29T18:28:48.199Z,14.15
2019-03-29T18:31:17.111Z,11.80
2019-03-29T18:33:45.649Z,13.03
2019-03-29T18:36:14.540Z,12.33
2019-03-29T18:38:44.635Z,12.95
2019-03-29T18:41:13.179Z,14.53
2019-03-29T18:43:41.652Z,13.70
2019-03-29T18:46:10.317Z,13.03
2019-03-29T18:48:38.845Z,12.40
2019-03-29T18:51:07.380Z,12.33
2019-03-29T18:53:37.520Z,11.57
2019-03-29T18:56:06.249Z,11.35
2019-03-29T18:58:34.813Z,12.18
2019-03-29T19:01:03.514Z,12.10
2019-03-29T19:03:32.153Z,11.90
2019-03-29T19:06:00.758Z,11.63
2019-03-29T19:08:29.373Z,11.78
2019-03-29T19:10:58.354Z,12.53
2019-03-29T19:13:26.828Z,12.07
2019-03-29T19:15:55.324Z,12.63
2019-03-29T19:18:24.249Z,12.73
2019-03-29T19:20:52.812Z,11.55
2019-03-29T19:23:21.345Z,12.40
2019-03-29T19:25:50.085Z,12.97
2019-03-29T19:28:18.618Z,12.07
2019-03-29T19:30:47.115Z,12.15
2019-03-29T19:33:15.572Z,12.50
2019-03-29T19:35:44.061Z,12.75
2019-03-29T19:38:12.519Z,13.60
2019-03-29T19:40:41.267Z,12.40
2019-03-29T19:43:09.735Z,13.03
2019-03-29T19:45:38.291Z,12.53
2019-03-29T19:48:06.932Z,11.83
2019-03-29T19:50:35.463Z,11.90
2019-03-29T19:53:04.024Z,12.60
2019-03-29T19:55:32.584Z,12.90
2019-03-29T19:58:01.201Z,11.70
2019-03-29T20:00:37.425Z,12.93
2019-03-29T20:03:06.327Z,11.63
2019-03-29T20:05:34.987Z,12.40
2019-03-29T20:08:03.603Z,12.63
2019-03-29T20:10:32.167Z,12.90
2019-03-29T20:13:01.406Z,12.73
2019-03-29T20:15:29.966Z,12.57
2019-03-29T20:17:58.512Z,12.07
2019-03-29T20:20:27.155Z,13.18
2019-03-29T20:22:59.194Z,13.70
2019-03-29T20:25:27.875Z,13.53
2019-03-29T20:27:58.586Z,13.50
2019-03-29T20:30:27.222Z,13.37
2019-03-29T20:32:55.779Z,13.40
2019-03-29T20:35:24.375Z,13.50
2019-03-29T20:37:52.935Z,13.22
2019-03-29T20:40:21.413Z,13.57
2019-03-29T20:42:50.002Z,14.15
2019-03-29T20:46:45.547Z,14.23
2019-03-29T20:49:14.017Z,14.30
2019-03-29T20:51:42.507Z,13.57
2019-03-29T20:54:11.095Z,14.23
2019-03-29T20:56:39.628Z,14.47
2019-03-29T20:59:08.125Z,14.40
2019-03-29T21:01:36.668Z,14.20
2019-03-29T21:04:05.248Z,14.30
2019-03-29T21:06:33.775Z,14.77
2019-03-29T21:09:02.452Z,15.03
2019-03-29T21:11:30.983Z,14.78
2019-03-29T21:14:00.404Z,14.60
2019-03-29T21:16:28.868Z,15.38
2019-03-29T21:18:57.359Z,15.25
2019-03-29T21:21:25.839Z,15.23
2019-03-29T21:23:54.350Z,15.10
2019-03-29T21:26:22.881Z,14.90
2019-03-29T21:28:52.921Z,15.40
2019-03-29T21:31:21.693Z,14.90
2019-03-29T21:33:50.246Z,15.38
2019-03-29T21:36:18.723Z,15.80
2019-03-29T21:38:47.226Z,16.20
2019-03-29T21:41:15.675Z,16.30
2019-03-29T21:43:44.143Z,15.43
2019-03-29T21:46:12.623Z,18.27
2019-03-29T21:48:41.133Z,18.17
2019-03-29T21:51:09.703Z,17.60
2019-03-29T21:53:38.499Z,18.15
2019-03-29T21:56:06.992Z,19.05
2019-03-29T21:58:35.459Z,19.50
2019-03-29T22:01:04.098Z,18.70
2019-03-29T22:03:32.631Z,18.90
2019-03-29T22:06:01.144Z,19.15
2019-03-29T22:08:29.613Z,19.57
2019-03-29T22:10:58.175Z,20.23
2019-03-29T22:13:26.715Z,20.50
2019-03-29T22:15:55.191Z,18.83
2019-03-29T22:18:36.863Z,19.17
2019-03-29T22:20:53.928Z,18.35
2019-03-29T22:23:22.439Z,18.47
2019-03-29T22:25:51.251Z,19.52
2019-03-29T22:28:19.764Z,19.65
2019-03-29T22:30:48.230Z,19.37
2019-03-29T22:33:16.825Z,19.00
2019-03-29T22:35:45.350Z,18.70
2019-03-29T22:38:13.838Z,18.73
2019-03-29T22:40:42.371Z,18.30
2019-03-29T22:43:10.899Z,18.98
2019-03-29T22:45:39.449Z,19.00
2019-03-29T22:48:07.956Z,18.70
2019-03-29T22:50:36.448Z,18.87
2019-03-29T22:53:04.916Z,19.85
2019-03-29T22:55:33.411Z,19.30
2019-03-29T22:58:02.132Z,19.27
2019-03-29T23:00:37.534Z,19.50
2019-03-29T23:03:06.891Z,19.27
2019-03-29T23:05:35.826Z,19.23
2019-03-29T23:08:04.719Z,19.67
2019-03-29T23:10:33.284Z,19.77
2019-03-29T23:13:02.015Z,19.93
2019-03-29T23:15:30.830Z,21.37
2019-03-29T23:17:59.371Z,20.30
2019-03-29T23:20:27.831Z,20.85
2019-03-29T23:22:56.492Z,19.70
2019-03-29T23:25:25.029Z,20.27
2019-03-29T23:27:54.307Z,20.27
2019-03-29T23:30:23.218Z,20.23
2019-03-29T23:32:51.777Z,19.00
2019-03-29T23:35:20.355Z,19.32
2019-03-29T23:37:48.951Z,19.55
2019-03-29T23:40:17.421Z,18.60
2019-03-29T23:42:45.911Z,19.10
2019-03-29T23:45:14.511Z,18.80
2019-03-29T23:47:43.082Z,19.73
2019-03-29T23:50:12.485Z,19.10
2019-03-29T23:52:41.152Z,19.00
2019-03-29T23:55:09.748Z,19.50
2019-03-29T23:57:38.210Z,19.40
